Time;durP1;ratioP1;P1;durP2;ratioP2;P2;SDS_P1;SDS_P2;PMS_P1;PMS_P2;Temp;Humidity;BMP_temperature;BMP_pressure;BME280_temperature;BME280_humidity;BME280_pressure;Samples;Min_cycle;Max_cycle;Signal;HPM_P1;HPM_P2
2021/08/25 00:01:17;;;;;;;2.72;2.20;;;24.50;46.00;;;;;;5093612;28;20215;-54
2021/08/25 00:03:44;;;;;;;2.33;2.15;;;24.50;46.00;;;;;;5082358;28;20224;-53
2021/08/25 00:06:10;;;;;;;2.40;2.20;;;24.50;46.00;;;;;;5086095;28;20220;-50
2021/08/25 00:08:37;;;;;;;2.42;2.22;;;24.50;46.00;;;;;;5093142;28;20649;-53
2021/08/25 00:11:04;;;;;;;2.58;2.38;;;24.50;46.00;;;;;;5092496;28;20269;-55
2021/08/25 00:13:30;;;;;;;2.47;2.22;;;24.50;46.00;;;;;;5092991;28;20216;-48
2021/08/25 00:15:56;;;;;;;2.47;2.28;;;24.50;46.00;;;;;;5075116;28;20201;-51
2021/08/25 00:18:24;;;;;;;2.47;2.20;;;24.50;45.90;;;;;;5100284;28;20630;-47
2021/08/25 00:20:51;;;;;;;2.30;2.10;;;24.50;46.00;;;;;;5078725;28;20717;-53
2021/08/25 00:23:17;;;;;;;2.28;2.08;;;24.50;46.00;;;;;;5092792;28;20712;-49
2021/08/25 00:25:43;;;;;;;2.30;2.10;;;24.50;46.00;;;;;;5079365;28;20562;-52
2021/08/25 00:28:10;;;;;;;2.08;1.98;;;24.50;45.90;;;;;;5087927;28;20653;-48
2021/08/25 00:30:36;;;;;;;2.50;2.30;;;24.50;45.90;;;;;;5093223;28;20679;-49
2021/08/25 00:33:03;;;;;;;2.30;2.13;;;24.50;45.90;;;;;;5093159;28;20688;-48
2021/08/25 00:35:29;;;;;;;2.58;2.38;;;24.50;45.90;;;;;;5089463;28;20288;-45
2021/08/25 00:37:56;;;;;;;2.38;2.17;;;24.50;45.90;;;;;;5089146;28;20220;-47
2021/08/25 00:40:22;;;;;;;2.40;2.15;;;24.50;45.90;;;;;;5070755;28;20201;-46
2021/08/25 00:42:49;;;;;;;1.98;1.88;;;24.50;45.90;;;;;;5092850;28;20246;-46
2021/08/25 00:45:15;;;;;;;2.83;2.20;;;24.50;45.90;;;;;;5088260;28;20496;-51
2021/08/25 00:47:41;;;;;;;2.80;2.30;;;24.50;46.00;;;;;;5092083;28;20216;-47
2021/08/25 00:50:08;;;;;;;2.20;2.10;;;24.50;45.90;;;;;;5092358;28;20558;-47
2021/08/25 00:52:34;;;;;;;2.58;2.20;;;24.50;45.90;;;;;;5083887;28;20565;-47
2021/08/25 00:55:01;;;;;;;2.60;2.10;;;24.50;45.90;;;;;;5085479;28;20572;-48
2021/08/25 00:57:28;;;;;;;2.38;2.17;;;24.50;46.60;;;;;;5091016;28;20223;-54
2021/08/25 00:59:54;;;;;;;2.53;2.33;;;24.50;45.90;;;;;;5111277;28;20191;-55
2021/08/25 01:02:20;;;;;;;2.72;2.20;;;24.50;45.90;;;;;;5090820;28;20208;-50
2021/08/25 01:04:47;;;;;;;2.38;2.10;;;24.50;45.90;;;;;;5091325;28;20230;-51
2021/08/25 01:07:13;;;;;;;2.50;2.30;;;24.50;45.90;;;;;;5088808;28;20225;-56
2021/08/25 01:09:40;;;;;;;2.40;2.00;;;24.50;45.90;;;;;;5085006;28;20237;-49
2021/08/25 01:12:06;;;;;;;2.67;2.10;;;24.50;45.90;;;;;;5088965;28;20200;-52
2021/08/25 01:14:33;;;;;;;2.22;2.03;;;24.50;45.90;;;;;;5092981;28;20215;-52
2021/08/25 01:16:59;;;;;;;2.42;2.10;;;24.50;46.00;;;;;;5086546;28;20224;-49
2021/08/25 01:19:25;;;;;;;2.10;2.00;;;24.50;45.90;;;;;;5085128;28;20208;-52
2021/08/25 01:21:52;;;;;;;2.58;2.10;;;24.50;45.90;;;;;;5085341;28;20197;-46
2021/08/25 01:24:18;;;;;;;2.30;2.10;;;24.50;45.90;;;;;;5088680;28;20236;-46
2021/08/25 01:26:45;;;;;;;2.95;2.05;;;24.50;46.00;;;;;;5090043;28;20217;-50
2021/08/25 01:29:11;;;;;;;2.10;2.00;;;24.50;46.00;;;;;;5094709;28;20204;-54
2021/08/25 01:31:38;;;;;;;2.10;2.00;;;24.50;46.10;;;;;;5090721;28;20649;-51
2021/08/25 01:34:04;;;;;;;2.30;2.10;;;24.50;46.00;;;;;;5098144;28;20207;-51
2021/08/25 01:36:30;;;;;;;2.22;1.92;;;24.50;46.10;;;;;;5082739;28;20221;-50
2021/08/25 01:38:57;;;;;;;2.50;2.30;;;24.50;46.10;;;;;;5071641;28;20195;-48
2021/08/25 01:41:23;;;;;;;2.20;2.00;;;24.50;46.10;;;;;;5104005;28;20209;-51
2021/08/25 01:43:50;;;;;;;2.53;2.33;;;24.50;46.00;;;;;;5073069;28;20225;-47
2021/08/25 01:46:16;;;;;;;2.17;2.08;;;24.50;46.00;;;;;;5082796;28;20233;-51
2021/08/25 01:48:43;;;;;;;2.13;1.95;;;24.50;46.00;;;;;;5092071;28;20206;-48
2021/08/25 01:51:09;;;;;;;2.38;2.17;;;24.50;46.00;;;;;;5089650;28;20204;-47
2021/08/25 01:53:35;;;;;;;2.90;2.20;;;24.50;46.10;;;;;;5071676;28;20201;-47
2021/08/25 01:56:02;;;;;;;2.30;2.10;;;24.50;46.00;;;;;;5084651;28;20212;-48
2021/08/25 01:58:28;;;;;;;2.63;2.20;;;24.50;46.00;;;;;;5091767;28;20205;-50
2021/08/25 02:00:55;;;;;;;2.60;2.40;;;24.50;46.00;;;;;;5075946;28;20197;-51
2021/08/25 02:03:21;;;;;;;2.85;2.40;;;24.50;46.00;;;;;;5087003;28;20244;-51
2021/08/25 02:05:48;;;;;;;2.08;1.98;;;24.50;46.00;;;;;;5091768;28;20222;-50
2021/08/25 02:08:14;;;;;;;2.53;2.33;;;24.40;46.00;;;;;;5090409;28;20196;-46
2021/08/25 02:10:41;;;;;;;2.17;1.98;;;24.50;46.00;;;;;;5089681;28;20201;-50
2021/08/25 02:13:07;;;;;;;2.05;1.95;;;24.50;46.00;;;;;;5090271;28;20681;-46
2021/08/25 02:15:34;;;;;;;2.20;2.03;;;24.50;46.00;;;;;;5090356;28;20573;-47
2021/08/25 02:18:01;;;;;;;2.15;2.03;;;24.50;46.00;;;;;;5098837;28;20196;-53
2021/08/25 02:20:27;;;;;;;2.65;2.28;;;24.50;46.00;;;;;;5078488;28;20211;-46
2021/08/25 02:22:54;;;;;;;2.72;2.00;;;24.50;46.00;;;;;;5091733;28;20209;-46
2021/08/25 02:25:20;;;;;;;2.10;2.00;;;24.40;46.00;;;;;;5090547;28;20200;-46
2021/08/25 02:27:46;;;;;;;1.90;1.80;;;24.40;46.00;;;;;;5094878;28;20200;-46
2021/08/25 02:30:13;;;;;;;2.38;2.17;;;24.50;46.00;;;;;;5076189;28;20612;-48
2021/08/25 02:32:41;;;;;;;2.03;1.92;;;24.50;46.00;;;;;;5071232;28;20227;-50
2021/08/25 02:35:08;;;;;;;2.40;2.20;;;24.40;45.90;;;;;;5086038;28;20212;-48
2021/08/25 02:37:34;;;;;;;2.15;2.00;;;24.40;46.00;;;;;;5085939;28;20234;-47
2021/08/25 02:40:01;;;;;;;2.00;1.90;;;24.40;46.00;;;;;;5089122;28;20218;-51
2021/08/25 02:42:27;;;;;;;2.33;2.13;;;24.40;46.00;;;;;;5099175;22;20234;-58
2021/08/25 02:44:53;;;;;;;2.25;2.05;;;24.40;46.00;;;;;;5090200;28;20232;-58
2021/08/25 02:47:20;;;;;;;2.10;2.00;;;24.50;46.10;;;;;;5071054;28;20221;-58
2021/08/25 02:49:46;;;;;;;1.92;1.77;;;24.40;46.00;;;;;;5070755;28;20220;-58
2021/08/25 02:52:13;;;;;;;2.10;1.95;;;24.40;46.00;;;;;;5070089;28;20249;-58
2021/08/25 02:54:39;;;;;;;2.60;2.15;;;24.40;46.00;;;;;;5068306;28;20269;-58
2021/08/25 02:57:06;;;;;;;2.10;2.00;;;24.40;46.00;;;;;;5063907;28;20235;-59
2021/08/25 02:59:32;;;;;;;2.10;2.00;;;24.40;46.00;;;;;;5070017;28;20197;-58
2021/08/25 03:01:59;;;;;;;2.10;2.00;;;24.40;46.00;;;;;;5069281;28;20197;-58
2021/08/25 03:04:25;;;;;;;2.35;2.15;;;24.40;46.00;;;;;;5070768;28;20228;-58
2021/08/25 03:06:51;;;;;;;2.38;1.80;;;24.40;46.00;;;;;;5069531;28;20225;-58
2021/08/25 03:09:18;;;;;;;2.45;2.00;;;24.50;46.00;;;;;;5070464;28;20288;-59
2021/08/25 03:11:44;;;;;;;2.22;2.05;;;24.50;46.00;;;;;;5069111;28;20207;-59
2021/08/25 03:14:11;;;;;;;2.10;2.00;;;24.40;46.00;;;;;;5069986;28;20196;-58
2021/08/25 03:16:37;;;;;;;1.80;1.70;;;24.50;46.10;;;;;;5069942;28;20221;-59
2021/08/25 03:19:04;;;;;;;2.30;2.10;;;24.40;46.00;;;;;;5069871;28;20203;-59
2021/08/25 03:21:30;;;;;;;2.67;2.03;;;24.40;46.00;;;;;;5069476;28;20197;-58
2021/08/25 03:23:56;;;;;;;2.00;1.90;;;24.40;46.00;;;;;;5072025;28;20216;-58
2021/08/25 03:26:23;;;;;;;2.22;2.03;;;24.50;46.10;;;;;;5073013;28;20224;-58
2021/08/25 03:28:49;;;;;;;2.40;1.80;;;24.40;46.00;;;;;;5073964;28;20197;-58
2021/08/25 03:31:16;;;;;;;2.30;2.10;;;24.40;46.00;;;;;;5072614;28;20208;-58
2021/08/25 03:33:42;;;;;;;2.00;1.90;;;24.50;46.10;;;;;;5074455;28;20197;-58
2021/08/25 03:36:09;;;;;;;2.05;1.95;;;24.40;46.00;;;;;;5073313;28;20233;-58
2021/08/25 03:38:35;;;;;;;2.25;2.05;;;24.40;46.00;;;;;;5073735;28;20213;-58
2021/08/25 03:41:01;;;;;;;2.40;2.20;;;24.40;46.00;;;;;;5070761;28;20211;-58
2021/08/25 03:43:28;;;;;;;2.30;2.10;;;24.40;46.00;;;;;;5074205;28;20225;-58
2021/08/25 03:45:54;;;;;;;2.15;1.90;;;24.40;46.00;;;;;;5072121;28;20213;-59
2021/08/25 03:48:21;;;;;;;1.95;1.85;;;24.40;46.00;;;;;;5074149;28;20204;-59
2021/08/25 03:50:47;;;;;;;1.92;1.83;;;24.40;46.00;;;;;;5072702;28;20288;-58
2021/08/25 03:53:14;;;;;;;2.30;2.10;;;24.40;46.00;;;;;;5073873;28;20206;-58
2021/08/25 03:55:40;;;;;;;2.20;2.00;;;24.40;46.00;;;;;;5072881;28;20225;-59
2021/08/25 03:58:07;;;;;;;2.40;1.90;;;24.40;46.00;;;;;;5073924;28;20203;-58
2021/08/25 04:00:33;;;;;;;2.10;2.00;;;24.40;46.00;;;;;;5072746;28;20201;-59
2021/08/25 04:02:59;;;;;;;2.90;2.28;;;24.40;46.00;;;;;;5073849;28;20207;-59
2021/08/25 04:05:26;;;;;;;2.15;1.95;;;24.40;46.00;;;;;;5071615;28;20560;-58
2021/08/25 04:07:52;;;;;;;2.22;2.03;;;24.40;46.00;;;;;;5073829;28;20247;-58
2021/08/25 04:10:19;;;;;;;1.88;1.77;;;24.40;46.10;;;;;;5072224;28;20231;-58
2021/08/25 04:12:45;;;;;;;2.13;1.92;;;24.40;46.00;;;;;;5073291;28;20209;-58
2021/08/25 04:15:12;;;;;;;2.13;1.98;;;24.40;46.10;;;;;;5072182;28;20249;-58
2021/08/25 04:17:38;;;;;;;1.90;1.80;;;24.40;46.10;;;;;;5073387;28;20211;-59
2021/08/25 04:20:05;;;;;;;2.30;2.10;;;24.40;46.10;;;;;;5072509;28;20205;-59
2021/08/25 04:22:31;;;;;;;2.30;2.10;;;24.40;46.10;;;;;;5073232;28;20197;-58
2021/08/25 04:24:58;;;;;;;2.10;2.00;;;24.40;46.10;;;;;;5072126;28;20239;-58
2021/08/25 04:27:24;;;;;;;2.13;2.03;;;24.40;46.10;;;;;;5073450;28;20197;-59
2021/08/25 04:29:51;;;;;;;1.75;1.65;;;24.40;46.10;;;;;;5069043;28;20194;-58
2021/08/25 04:32:17;;;;;;;2.15;1.95;;;24.40;46.10;;;;;;5071932;28;20223;-59
2021/08/25 04:34:44;;;;;;;2.00;1.90;;;24.40;46.10;;;;;;5071990;28;20206;-59
2021/08/25 04:37:10;;;;;;;2.05;1.92;;;24.40;46.10;;;;;;5073160;28;20205;-58
2021/08/25 04:39:36;;;;;;;2.17;1.98;;;24.40;46.10;;;;;;5070759;28;20200;-59
2021/08/25 04:42:03;;;;;;;3.08;2.70;;;24.40;46.10;;;;;;5072122;28;20300;-59
2021/08/25 04:44:29;;;;;;;2.10;2.00;;;24.40;46.10;;;;;;5072916;28;20228;-58
2021/08/25 04:46:56;;;;;;;4.55;2.10;;;24.40;46.10;;;;;;5071151;28;20671;-59
2021/08/25 04:49:22;;;;;;;2.10;2.00;;;24.40;46.10;;;;;;5072003;28;20205;-58
2021/08/25 04:51:49;;;;;;;2.03;1.83;;;24.40;46.10;;;;;;5071695;28;20201;-58
2021/08/25 04:54:15;;;;;;;2.00;1.90;;;24.40;46.10;;;;;;5072832;28;20212;-58
2021/08/25 04:56:41;;;;;;;1.80;1.70;;;24.40;46.10;;;;;;5063623;28;20236;-58
2021/08/25 04:59:08;;;;;;;2.30;2.10;;;24.40;46.10;;;;;;5053335;28;20300;-58
2021/08/25 05:01:34;;;;;;;1.88;1.77;;;24.40;46.10;;;;;;5064424;28;20193;-58
2021/08/25 05:04:01;;;;;;;2.05;1.95;;;24.40;46.10;;;;;;5059939;28;20217;-57
2021/08/25 05:06:27;;;;;;;2.13;1.92;;;24.40;46.20;;;;;;5067716;28;20763;-58
2021/08/25 05:08:54;;;;;;;2.15;1.98;;;24.40;46.10;;;;;;5072221;28;20197;-58
2021/08/25 05:11:20;;;;;;;2.28;2.08;;;24.40;46.10;;;;;;5070981;28;20208;-58
2021/08/25 05:13:47;;;;;;;2.00;1.90;;;24.40;46.10;;;;;;5072772;28;20209;-58
2021/08/25 05:16:13;;;;;;;1.90;1.80;;;24.40;46.10;;;;;;5070502;28;20217;-57
2021/08/25 05:18:39;;;;;;;1.95;1.85;;;24.40;46.10;;;;;;5072358;28;20203;-58
2021/08/25 05:21:06;;;;;;;2.10;1.90;;;24.40;46.10;;;;;;5070679;28;20203;-57
2021/08/25 05:23:32;;;;;;;2.25;1.90;;;24.40;46.10;;;;;;5072471;28;20626;-58
2021/08/25 05:25:59;;;;;;;2.10;2.00;;;24.40;46.10;;;;;;5071083;28;20312;-58
2021/08/25 05:28:25;;;;;;;1.90;1.80;;;24.40;46.10;;;;;;5071818;28;20201;-58
2021/08/25 05:30:52;;;;;;;1.98;1.77;;;24.40;46.10;;;;;;5069690;28;20201;-55
2021/08/25 05:33:18;;;;;;;1.90;1.70;;;24.40;46.10;;;;;;5071630;28;20204;-58
2021/08/25 05:35:45;;;;;;;2.10;2.00;;;24.40;46.10;;;;;;5070318;28;20221;-58
2021/08/25 05:38:11;;;;;;;2.35;2.00;;;24.40;46.30;;;;;;5072305;28;20197;-59
2021/08/25 05:40:37;;;;;;;1.95;1.83;;;24.40;46.50;;;;;;5070001;28;20205;-58
2021/08/25 05:43:04;;;;;;;6.28;2.00;;;24.40;46.50;;;;;;5071096;28;20205;-57
2021/08/25 05:45:30;;;;;;;2.40;2.10;;;24.40;46.60;;;;;;5063332;28;20228;-56
2021/08/25 05:47:57;;;;;;;3.85;1.92;;;24.50;46.70;;;;;;5059214;28;20216;-61
2021/08/25 05:50:23;;;;;;;8.10;2.63;;;24.50;46.80;;;;;;5068076;28;20224;-57
2021/08/25 05:52:50;;;;;;;6.05;2.50;;;24.50;47.20;;;;;;5056261;28;20756;-59
2021/08/25 05:55:16;;;;;;;3.42;2.70;;;24.50;48.10;;;;;;5073429;28;20607;-59
2021/08/25 05:57:45;;;;;;;3.53;2.50;;;24.50;48.10;;;;;;5070282;28;20706;-60
2021/08/25 06:00:12;;;;;;;6.70;2.60;;;24.50;48.10;;;;;;5073414;28;20204;-61
2021/08/25 06:02:38;;;;;;;5.50;2.67;;;24.50;49.30;;;;;;5087047;28;20202;-59
2021/08/25 06:05:05;;;;;;;4.57;2.50;;;24.50;49.30;;;;;;5064140;28;20252;-62
2021/08/25 06:07:32;;;;;;;5.03;2.63;;;24.50;49.40;;;;;;5055243;28;20282;-56
2021/08/25 06:09:58;;;;;;;6.55;2.72;;;24.50;49.70;;;;;;5070649;28;20265;-60
2021/08/25 06:12:25;;;;;;;9.50;3.30;;;24.50;49.90;;;;;;5070156;28;20207;-60
2021/08/25 06:14:51;;;;;;;7.32;3.05;;;24.60;50.20;;;;;;5070965;28;20249;-59
2021/08/25 06:17:18;;;;;;;8.98;3.72;;;24.60;50.20;;;;;;5070592;28;20200;-58
2021/08/25 06:19:44;;;;;;;10.18;5.13;;;24.60;49.70;;;;;;5070270;28;20278;-60
2021/08/25 06:22:10;;;;;;;6.97;4.70;;;23.90;49.60;;;;;;5068123;28;20204;-60
2021/08/25 06:24:37;;;;;;;6.45;4.43;;;23.60;47.00;;;;;;5069314;28;20237;-60
2021/08/25 06:27:03;;;;;;;4.75;4.35;;;23.10;44.30;;;;;;5069854;28;20208;-61
2021/08/25 06:29:30;;;;;;;5.50;4.50;;;23.00;42.80;;;;;;5064126;28;20288;-61
2021/08/25 06:31:56;;;;;;;5.78;4.03;;;22.90;40.70;;;;;;5068701;28;20594;-60
2021/08/25 06:34:23;;;;;;;5.32;4.60;;;22.80;41.80;;;;;;5069538;28;20665;-60
2021/08/25 06:36:49;;;;;;;4.50;3.88;;;22.80;40.70;;;;;;5069815;28;20223;-61
2021/08/25 06:39:15;;;;;;;5.22;3.97;;;22.60;41.20;;;;;;5070548;28;20573;-61
2021/08/25 06:41:42;;;;;;;4.43;4.03;;;22.60;39.70;;;;;;5068373;28;20589;-60
2021/08/25 06:44:08;;;;;;;4.88;3.80;;;22.40;40.80;;;;;;5065760;28;20295;-59
2021/08/25 06:46:35;;;;;;;3.63;3.33;;;22.50;40.50;;;;;;5069093;28;20235;-60
2021/08/25 06:49:01;;;;;;;5.57;3.58;;;22.80;40.90;;;;;;5070871;28;20200;-57
2021/08/25 06:51:28;;;;;;;3.70;3.03;;;23.10;40.20;;;;;;5072886;28;20197;-57
2021/08/25 06:53:55;;;;;;;5.57;3.35;;;23.30;40.00;;;;;;5073201;28;20730;-62
2021/08/25 06:56:22;;;;;;;5.57;3.33;;;23.40;40.50;;;;;;5067236;28;20221;-59
2021/08/25 06:58:48;;;;;;;3.50;3.17;;;23.50;40.90;;;;;;5068290;28;20202;-53
2021/08/25 07:01:15;;;;;;;3.50;3.20;;;23.60;40.50;;;;;;5067587;28;20213;-59
2021/08/25 07:03:41;;;;;;;3.40;3.10;;;23.60;41.00;;;;;;5068151;28;20236;-56
2021/08/25 07:06:08;;;;;;;3.50;3.20;;;23.70;41.70;;;;;;5073630;28;20237;-56
2021/08/25 07:08:34;;;;;;;2.88;2.67;;;23.70;42.00;;;;;;5086214;28;20214;-56
2021/08/25 07:11:01;;;;;;;3.10;2.80;;;23.80;42.70;;;;;;5090941;28;20196;-53
2021/08/25 07:13:27;;;;;;;4.30;3.00;;;23.80;43.20;;;;;;5072046;28;20201;-55
2021/08/25 07:15:53;;;;;;;3.60;2.58;;;23.80;43.20;;;;;;5071122;28;20255;-55
2021/08/25 07:18:20;;;;;;;4.38;2.95;;;23.80;43.50;;;;;;5089023;28;20563;-56
2021/08/25 07:20:46;;;;;;;2.95;2.45;;;23.90;43.60;;;;;;5091007;28;20204;-56
2021/08/25 07:23:13;;;;;;;3.30;2.55;;;23.90;43.30;;;;;;5079503;28;20201;-55
2021/08/25 07:25:39;;;;;;;3.05;2.60;;;23.90;43.40;;;;;;5071312;28;20591;-54
2021/08/25 07:28:06;;;;;;;4.10;2.80;;;24.00;43.50;;;;;;5090734;28;20267;-56
2021/08/25 07:30:32;;;;;;;5.57;2.63;;;24.00;43.20;;;;;;5090771;28;20200;-53
2021/08/25 07:32:59;;;;;;;3.33;3.03;;;24.00;43.10;;;;;;5069093;28;20197;-56
2021/08/25 07:35:29;;;;;;;2.50;2.30;;;24.00;43.50;;;;;;5050570;28;20218;-55
2021/08/25 07:37:56;;;;;;;3.03;2.72;;;24.00;43.60;;;;;;5065795;28;20197;-55
2021/08/25 07:40:22;;;;;;;3.05;2.75;;;24.00;43.60;;;;;;5061117;28;20203;-52
2021/08/25 07:42:48;;;;;;;2.78;2.58;;;24.00;43.70;;;;;;5070378;28;20213;-55
2021/08/25 07:45:15;;;;;;;3.10;2.80;;;24.00;43.60;;;;;;5071050;28;20239;-56
2021/08/25 07:47:44;;;;;;;3.17;2.42;;;24.00;43.60;;;;;;5070776;28;20204;-56
2021/08/25 07:50:10;;;;;;;2.78;2.50;;;24.00;43.80;;;;;;5070390;28;20197;-54
2021/08/25 07:52:36;;;;;;;3.15;2.80;;;24.10;43.90;;;;;;5070450;28;20292;-55
2021/08/25 07:55:03;;;;;;;2.80;2.60;;;24.10;43.90;;;;;;5070959;28;20221;-55
2021/08/25 07:57:29;;;;;;;2.58;2.38;;;24.10;43.90;;;;;;5070149;28;20211;-55
2021/08/25 07:59:56;;;;;;;3.03;2.30;;;24.10;44.00;;;;;;5062937;28;20216;-52
2021/08/25 08:02:22;;;;;;;2.60;2.40;;;24.10;44.10;;;;;;5059975;28;20594;-55
2021/08/25 08:04:49;;;;;;;2.75;2.53;;;24.10;44.10;;;;;;5070004;28;20251;-56
2021/08/25 08:07:15;;;;;;;2.92;2.67;;;24.10;44.20;;;;;;5065687;28;20214;-55
2021/08/25 08:09:42;;;;;;;3.08;2.72;;;24.10;44.30;;;;;;5061212;28;20559;-55
2021/08/25 08:12:08;;;;;;;2.50;2.25;;;24.10;44.30;;;;;;5067770;28;20202;-55
2021/08/25 08:14:35;;;;;;;2.88;2.53;;;24.10;44.00;;;;;;5069370;28;20320;-51
2021/08/25 08:17:03;;;;;;;3.00;2.78;;;24.10;44.10;;;;;;5072028;28;20725;-55
2021/08/25 08:19:33;;;;;;;3.17;2.88;;;24.10;43.60;;;;;;5079472;28;20205;-46
2021/08/25 08:22:00;;;;;;;3.25;2.53;;;24.20;44.20;;;;;;5072717;28;20197;-51
2021/08/25 08:24:26;;;;;;;3.83;2.72;;;24.30;43.80;;;;;;5072241;28;20225;-54
2021/08/25 08:26:53;;;;;;;2.85;2.60;;;24.30;44.60;;;;;;5073378;28;20203;-55
2021/08/25 08:29:19;;;;;;;2.75;2.55;;;24.30;44.80;;;;;;5072569;28;20262;-63
2021/08/25 08:31:46;;;;;;;3.10;2.40;;;24.30;44.50;;;;;;5063599;28;20642;-58
2021/08/25 08:34:12;;;;;;;4.00;2.83;;;24.30;44.60;;;;;;5062463;28;20227;-54
2021/08/25 08:36:38;;;;;;;4.47;2.65;;;24.40;44.20;;;;;;5068724;28;20206;-51
2021/08/25 08:39:05;;;;;;;4.25;2.88;;;24.40;44.30;;;;;;5061485;28;20206;-57
2021/08/25 08:41:31;;;;;;;4.68;3.22;;;24.40;42.30;;;;;;5081890;22;20199;-44
2021/08/25 08:43:58;;;;;;;3.00;2.70;;;24.40;41.30;;;;;;5052664;28;20220;-52
2021/08/25 08:46:24;;;;;;;4.85;3.00;;;24.30;41.30;;;;;;5051974;28;20222;-46
2021/08/25 08:48:51;;;;;;;3.20;2.90;;;24.30;39.90;;;;;;5052439;28;20221;-44
2021/08/25 08:51:18;;;;;;;4.72;2.78;;;24.30;39.70;;;;;;5048595;28;20213;-45
2021/08/25 08:53:44;;;;;;;3.90;2.80;;;24.20;39.60;;;;;;5050352;28;20205;-47
2021/08/25 08:56:11;;;;;;;3.50;3.00;;;24.20;39.40;;;;;;5052542;28;20206;-45
2021/08/25 08:58:37;;;;;;;4.47;3.17;;;24.20;38.50;;;;;;5051293;28;20201;-45
2021/08/25 09:01:04;;;;;;;4.05;2.78;;;24.20;39.10;;;;;;5048790;28;20604;-45
2021/08/25 09:03:30;;;;;;;3.67;2.97;;;24.30;38.60;;;;;;5032718;28;20237;-44
2021/08/25 09:05:57;;;;;;;3.72;2.83;;;24.30;38.70;;;;;;5047673;28;20234;-47
2021/08/25 09:08:23;;;;;;;3.00;2.70;;;24.20;38.60;;;;;;5042175;28;20208;-48
2021/08/25 09:10:50;;;;;;;3.20;2.88;;;24.20;38.30;;;;;;5050916;28;20205;-46
2021/08/25 09:13:16;;;;;;;3.97;2.60;;;24.20;38.30;;;;;;5047305;28;20579;-45
2021/08/25 09:15:43;;;;;;;4.75;3.03;;;24.20;38.30;;;;;;5052906;28;20226;-46
2021/08/25 09:18:09;;;;;;;3.88;2.70;;;24.20;38.50;;;;;;5052532;28;20228;-45
2021/08/25 09:20:36;;;;;;;5.60;2.85;;;24.20;38.30;;;;;;5051739;28;20214;-45
2021/08/25 09:23:02;;;;;;;3.70;2.88;;;24.30;39.10;;;;;;5056439;28;20210;-49
2021/08/25 09:25:29;;;;;;;3.63;3.20;;;24.30;37.70;;;;;;5072015;28;20318;-47
2021/08/25 09:27:55;;;;;;;5.53;2.78;;;24.20;37.40;;;;;;5072226;28;20197;-46
2021/08/25 09:30:22;;;;;;;3.47;2.60;;;24.20;38.30;;;;;;5071401;28;20201;-46
2021/08/25 09:32:48;;;;;;;3.58;3.08;;;24.20;37.50;;;;;;5071541;28;20209;-46
2021/08/25 09:35:15;;;;;;;4.97;2.92;;;24.20;37.70;;;;;;5070330;28;20224;-50
2021/08/25 09:37:41;;;;;;;5.60;3.20;;;24.20;37.60;;;;;;5049645;28;20206;-48
2021/08/25 09:40:10;;;;;;;4.05;2.70;;;24.30;38.40;;;;;;5049650;28;20327;-46
2021/08/25 09:42:36;;;;;;;5.18;3.15;;;24.30;37.50;;;;;;5049587;28;20316;-45
2021/08/25 09:45:03;;;;;;;6.07;2.78;;;24.30;37.00;;;;;;5051516;28;20230;-46
2021/08/25 09:47:29;;;;;;;4.20;3.05;;;24.30;37.10;;;;;;5061523;28;20284;-44
2021/08/25 09:49:56;;;;;;;4.30;2.80;;;24.40;37.60;;;;;;5053501;28;20193;-44
2021/08/25 09:52:22;;;;;;;4.60;3.03;;;24.40;37.10;;;;;;5052147;28;20208;-47
2021/08/25 09:54:49;;;;;;;3.45;2.92;;;24.30;36.60;;;;;;5050347;28;20449;-45
2021/08/25 09:57:15;;;;;;;4.18;3.00;;;24.30;36.40;;;;;;5038949;28;20206;-44
2021/08/25 09:59:42;;;;;;;4.25;3.10;;;24.30;36.00;;;;;;5031797;28;20210;-48
2021/08/25 10:02:08;;;;;;;2.83;2.53;;;24.30;36.30;;;;;;5049881;28;20210;-48
2021/08/25 10:04:35;;;;;;;4.22;2.92;;;24.30;35.90;;;;;;5060981;28;20243;-46
2021/08/25 10:07:01;;;;;;;4.45;2.80;;;24.30;36.30;;;;;;5050544;28;20597;-51
2021/08/25 10:09:28;;;;;;;5.88;3.13;;;24.30;36.10;;;;;;5047971;28;20682;-45
2021/08/25 10:11:56;;;;;;;6.75;3.78;;;24.30;36.70;;;;;;5040171;28;20356;-50
2021/08/25 10:14:22;;;;;;;3.35;2.80;;;24.40;36.50;;;;;;5048706;28;20724;-47
2021/08/25 10:16:49;;;;;;;3.40;3.10;;;24.40;36.30;;;;;;5048116;28;20206;-46
2021/08/25 10:19:15;;;;;;;5.07;2.80;;;24.40;34.90;;;;;;5050633;28;20206;-46
2021/08/25 10:21:42;;;;;;;3.63;3.15;;;24.30;34.40;;;;;;5035723;28;20194;-48
2021/08/25 10:24:08;;;;;;;4.60;2.95;;;24.40;35.40;;;;;;5040932;28;20226;-49
2021/08/25 10:26:35;;;;;;;5.40;2.72;;;24.40;35.80;;;;;;5044720;28;20290;-45
2021/08/25 10:29:01;;;;;;;3.80;3.30;;;24.40;36.00;;;;;;5047708;28;20208;-47
2021/08/25 10:31:28;;;;;;;4.40;3.28;;;24.40;35.80;;;;;;5049301;28;20198;-46
2021/08/25 10:33:54;;;;;;;4.47;3.20;;;24.40;35.50;;;;;;5049858;28;20221;-46
2021/08/25 10:36:23;;;;;;;3.80;3.05;;;24.40;35.40;;;;;;5047597;28;20294;-44
2021/08/25 10:38:49;;;;;;;4.35;3.10;;;24.40;35.70;;;;;;5041008;28;20198;-45
2021/08/25 10:41:16;;;;;;;3.95;2.72;;;24.30;35.50;;;;;;5040975;28;20204;-45
2021/08/25 10:43:42;;;;;;;3.92;3.30;;;24.40;35.50;;;;;;5037819;28;20226;-46
2021/08/25 10:46:09;;;;;;;3.30;2.92;;;24.30;34.90;;;;;;5041726;28;20237;-44
2021/08/25 10:48:35;;;;;;;5.03;3.00;;;24.30;34.80;;;;;;5044258;28;20246;-44
2021/08/25 10:51:02;;;;;;;4.82;3.20;;;24.30;35.00;;;;;;5042942;28;20212;-47
2021/08/25 10:53:28;;;;;;;5.43;3.00;;;24.40;35.50;;;;;;5048460;28;20642;-47
2021/08/25 10:55:54;;;;;;;4.32;2.97;;;24.40;36.20;;;;;;5050053;28;20289;-47
2021/08/25 10:58:21;;;;;;;3.88;2.72;;;24.40;36.70;;;;;;5048547;28;20284;-46
2021/08/25 11:00:47;;;;;;;3.60;3.10;;;24.40;37.00;;;;;;5049361;28;20194;-46
2021/08/25 11:03:14;;;;;;;3.67;3.22;;;24.40;37.30;;;;;;5048029;28;20204;-47
2021/08/25 11:05:41;;;;;;;3.75;2.90;;;24.40;36.90;;;;;;5050505;28;20252;-46
2021/08/25 11:08:07;;;;;;;3.75;3.33;;;24.40;37.60;;;;;;5050927;28;20565;-47
2021/08/25 11:10:33;;;;;;;3.10;2.70;;;24.30;37.40;;;;;;5048909;28;20595;-46
2021/08/25 11:13:00;;;;;;;3.55;2.80;;;24.40;37.70;;;;;;5052861;28;20570;-45
2021/08/25 11:15:27;;;;;;;3.92;2.60;;;24.40;37.70;;;;;;5057523;28;20206;-46
2021/08/25 11:17:53;;;;;;;2.92;2.40;;;24.40;37.80;;;;;;5043553;28;20202;-46
2021/08/25 11:20:20;;;;;;;3.30;2.67;;;24.40;38.10;;;;;;5050640;28;20208;-52
2021/08/25 11:22:47;;;;;;;4.25;2.78;;;24.30;37.40;;;;;;5047622;28;20198;-46
2021/08/25 11:25:14;;;;;;;3.47;2.50;;;24.30;37.80;;;;;;5041238;28;20221;-46
2021/08/25 11:27:40;;;;;;;3.65;3.35;;;24.40;37.70;;;;;;5046510;28;20205;-47
2021/08/25 11:30:07;;;;;;;3.63;2.70;;;24.40;38.10;;;;;;5049540;28;20205;-46
2021/08/25 11:32:33;;;;;;;3.35;2.90;;;24.40;38.10;;;;;;5050154;28;20213;-49
2021/08/25 11:35:00;;;;;;;2.78;2.47;;;24.40;38.10;;;;;;5049108;28;20221;-46
2021/08/25 11:37:26;;;;;;;2.95;2.40;;;24.40;37.90;;;;;;5049623;28;20201;-51
2021/08/25 11:39:53;;;;;;;3.13;2.80;;;24.30;37.70;;;;;;5049822;28;20224;-46
2021/08/25 11:42:19;;;;;;;4.10;2.90;;;24.40;38.10;;;;;;5050326;28;20210;-47
2021/08/25 11:44:46;;;;;;;3.08;2.60;;;24.40;38.20;;;;;;5049955;28;20237;-46
2021/08/25 11:47:12;;;;;;;5.13;3.75;;;24.40;38.00;;;;;;5054493;28;20235;-51
2021/08/25 11:49:38;;;;;;;3.25;2.75;;;24.40;38.00;;;;;;5053963;28;20285;-52
2021/08/25 11:52:05;;;;;;;3.28;2.83;;;24.30;38.30;;;;;;5052623;28;20197;-49
2021/08/25 11:54:31;;;;;;;3.15;2.80;;;24.40;38.00;;;;;;5053942;28;20224;-49
2021/08/25 11:56:58;;;;;;;2.85;2.55;;;24.40;37.80;;;;;;5054067;28;20209;-49
2021/08/25 11:59:24;;;;;;;3.33;2.92;;;24.40;38.10;;;;;;5052956;28;20202;-47
2021/08/25 12:01:51;;;;;;;3.28;2.63;;;24.40;38.50;;;;;;5052571;28;20202;-48
2021/08/25 12:04:17;;;;;;;3.15;2.70;;;24.40;38.50;;;;;;5045262;28;20223;-46
2021/08/25 12:06:44;;;;;;;3.42;2.92;;;24.40;38.40;;;;;;5048237;28;20646;-46
2021/08/25 12:09:10;;;;;;;2.78;2.50;;;24.40;38.00;;;;;;5051406;28;20545;-46
2021/08/25 12:11:37;;;;;;;3.58;2.70;;;24.40;38.10;;;;;;5052074;28;20280;-48
2021/08/25 12:14:04;;;;;;;3.20;2.92;;;24.40;38.50;;;;;;5052773;28;20315;-50
2021/08/25 12:16:31;;;;;;;3.13;2.83;;;24.40;39.20;;;;;;5053142;28;20198;-53
2021/08/25 12:18:58;;;;;;;3.15;2.58;;;24.40;38.50;;;;;;5053196;28;20291;-50
2021/08/25 12:21:24;;;;;;;3.03;2.72;;;24.40;38.50;;;;;;5053157;28;20206;-49
2021/08/25 12:23:50;;;;;;;2.90;2.60;;;24.40;38.50;;;;;;5053264;28;20232;-50
2021/08/25 12:26:17;;;;;;;3.13;2.70;;;24.40;38.30;;;;;;5052067;28;20229;-51
2021/08/25 12:28:43;;;;;;;4.30;3.33;;;24.40;37.80;;;;;;5052358;28;20204;-47
2021/08/25 12:31:10;;;;;;;3.33;2.65;;;24.40;38.10;;;;;;5051048;28;20204;-48
2021/08/25 12:33:36;;;;;;;2.90;2.60;;;24.40;38.50;;;;;;5053569;28;20239;-46
2021/08/25 12:36:03;;;;;;;3.88;3.03;;;24.40;38.40;;;;;;5052705;28;20201;-46
2021/08/25 12:38:29;;;;;;;3.15;2.67;;;24.40;37.80;;;;;;5051514;28;20205;-49
2021/08/25 12:40:56;;;;;;;2.95;2.63;;;24.40;38.00;;;;;;5052307;28;20205;-49
2021/08/25 12:43:22;;;;;;;3.00;2.70;;;24.40;37.60;;;;;;5049445;28;20232;-47